Baden Baden, Illinois
Current Conditions -  °F | °C
As of 2:58 PM on Thursday 23 Oct 2014 (Local Time) from KBLV Reporting Station
Scattered Clouds Scattered Clouds  
Wind Chill: 61°   Ceiling: Unl
Heat Index: 61°   Visibility: 7mi
Dew Point: 44°   Wind: 6mph
Humidity: 54%   Direction: 90°E
Pressure: 30.12"   Gusts: NA
Location:  38.7728°N, 89.5031°W
Report Text: KBLV 231958Z 09005KT 7SM SCT190 16/07 A3012 RMK AO2A SLP204 T01620068
Loading
Personal Weather Stations






























Interactive Weather Map
Tropical Storm Tracking
New forecast layout! Learn more

10-Day Weather Forecast

Advertisements
Track Severe Weather on mobile